Time,TemperatureF,DewpointF,PressureIn,WindDirection,WindDirectionDegrees,WindSpeedMPH,WindSpeedGustMPH,Humidity,HourlyPrecipIn,Conditions,Clouds,dailyrainin,SoftwareType,DateUTC
2013-01-21 00:03:00,-999.0,-99.9,29.88,East,84,16.0,19.0,-999,-99.99,,,-99.99,,2013-01-21 09:03:00,
2013-01-21 00:13:00,26.0,-99.9,29.88,East,81,17.0,21.0,-999,-99.99,,,-99.99,,2013-01-21 09:13:00,
2013-01-21 00:23:00,-999.0,-99.9,29.89,East,83,15.0,19.0,-999,-99.99,,,-99.99,,2013-01-21 09:23:00,
2013-01-21 00:33:00,-999.0,-99.9,29.89,East,79,17.0,22.0,-999,-99.99,,,-99.99,,2013-01-21 09:33:00,
2013-01-21 00:43:00,26.0,-99.9,29.89,East,82,17.0,21.0,-999,-99.99,,,-99.99,,2013-01-21 09:43:00,
2013-01-21 00:53:00,-999.0,-99.9,29.89,East,85,17.0,19.0,-999,-99.99,,,-99.99,,2013-01-21 09:53:00,
2013-01-21 01:03:00,-999.0,-99.9,29.90,East,81,14.0,16.0,-999,-99.99,,,-99.99,,2013-01-21 10:03:00,
2013-01-21 01:12:00,-999.0,-99.9,29.90,ENE,78,13.0,17.0,-999,-99.99,,,-99.99,,2013-01-21 10:12:00,
2013-01-21 01:23:00,26.0,-99.9,29.91,ENE,73,12.0,16.0,-999,-99.99,,,-99.99,,2013-01-21 10:23:00,
2013-01-21 01:33:00,-999.0,-99.9,29.91,ENE,78,13.0,16.0,-999,-99.99,,,-99.99,,2013-01-21 10:33:00,
2013-01-21 01:43:00,26.0,-99.9,29.91,East,81,14.0,17.0,-999,-99.99,,,-99.99,,2013-01-21 10:43:00,
2013-01-21 01:53:00,-999.0,-99.9,29.91,East,80,15.0,18.0,-999,-99.99,,,-99.99,,2013-01-21 10:53:00,
2013-01-21 02:03:00,-999.0,-99.9,29.91,East,80,12.0,15.0,-999,-99.99,,,-99.99,,2013-01-21 11:03:00,
2013-01-21 02:13:00,26.0,-99.9,29.91,ENE,77,12.0,15.0,-999,-99.99,,,-99.99,,2013-01-21 11:13:00,
2013-01-21 02:23:00,-999.0,-99.9,29.91,East,89,15.0,17.0,-999,-99.99,,,-99.99,,2013-01-21 11:23:00,
2013-01-21 02:33:00,-999.0,-99.9,29.91,East,82,14.0,20.0,-999,-99.99,,,-99.99,,2013-01-21 11:33:00,
2013-01-21 02:43:00,-999.0,-99.9,29.90,East,84,19.0,22.0,-999,-99.99,,,-99.99,,2013-01-21 11:43:00,
2013-01-21 02:53:00,-999.0,-99.9,29.90,East,89,16.0,21.0,-999,-99.99,,,-99.99,,2013-01-21 11:53:00,
2013-01-21 03:03:00,-999.0,-99.9,29.90,East,88,15.0,17.0,-999,-99.99,,,-99.99,,2013-01-21 12:03:00,
2013-01-21 03:12:00,26.0,-99.9,29.90,East,88,15.0,17.0,-999,-99.99,,,-99.99,,2013-01-21 12:12:00,
2013-01-21 03:23:00,-999.0,-99.9,29.91,East,85,13.0,16.0,-999,-99.99,,,-99.99,,2013-01-21 12:23:00,
2013-01-21 03:33:00,-999.0,-99.9,29.91,East,88,13.0,15.0,-999,-99.99,,,-99.99,,2013-01-21 12:33:00,
2013-01-21 03:43:00,26.0,-99.9,29.91,East,87,13.0,16.0,-999,-99.99,,,-99.99,,2013-01-21 12:43:00,
2013-01-21 03:53:00,-999.0,-99.9,29.91,East,83,11.0,14.0,-999,-99.99,,,-99.99,,2013-01-21 12:53:00,
2013-01-21 04:03:00,-999.0,-99.9,29.91,East,89,13.0,15.0,-999,-99.99,,,-99.99,,2013-01-21 13:03:00,
2013-01-21 04:13:00,-999.0,-99.9,29.91,East,89,13.0,16.0,-999,-99.99,,,-99.99,,2013-01-21 13:13:00,
2013-01-21 04:23:00,-999.0,-99.9,29.92,East,87,14.0,17.0,-999,-99.99,,,-99.99,,2013-01-21 13:23:00,
2013-01-21 04:33:00,-999.0,-99.9,29.92,East,87,12.0,15.0,-999,-99.99,,,-99.99,,2013-01-21 13:33:00,
2013-01-21 04:43:00,27.0,-99.9,29.91,East,85,11.0,14.0,-999,-99.99,,,-99.99,,2013-01-21 13:43:00,
2013-01-21 04:54:00,-999.0,-99.9,29.91,East,82,12.0,14.0,-999,-99.99,,,-99.99,,2013-01-21 13:54:00,
2013-01-21 05:04:00,-999.0,-99.9,29.91,East,81,12.0,15.0,-999,-99.99,,,-99.99,,2013-01-21 14:04:00,
2013-01-21 05:13:00,28.0,-99.9,29.91,East,82,13.0,16.0,-999,-99.99,,,-99.99,,2013-01-21 14:13:00,
2013-01-21 05:23:00,-999.0,-99.9,29.91,East,81,13.0,17.0,-999,-99.99,,,-99.99,,2013-01-21 14:23:00,
2013-01-21 05:33:00,-999.0,-99.9,29.91,ENE,74,14.0,17.0,-999,-99.99,,,-99.99,,2013-01-21 14:33:00,
2013-01-21 05:43:00,29.0,-99.9,29.91,ENE,73,13.0,16.0,-999,-99.99,,,-99.99,,2013-01-21 14:43:00,
2013-01-21 05:54:00,-999.0,-99.9,29.91,ENE,72,11.0,15.0,-999,-99.99,,,-99.99,,2013-01-21 14:54:00,
2013-01-21 06:03:00,-999.0,-99.9,29.91,ENE,71,10.0,13.0,-999,-99.99,,,-99.99,,2013-01-21 15:03:00,
2013-01-21 06:14:00,29.0,-99.9,29.91,ENE,75,10.0,13.0,-999,-99.99,,,-99.99,,2013-01-21 15:14:00,
2013-01-21 06:23:00,-999.0,-99.9,29.91,East,84,12.0,15.0,-999,-99.99,,,-99.99,,2013-01-21 15:23:00,
2013-01-21 06:33:00,-999.0,-99.9,29.91,East,87,17.0,20.0,-999,-99.99,,,-99.99,,2013-01-21 15:33:00,
2013-01-21 06:43:00,-999.0,-99.9,29.90,East,83,15.0,18.0,-999,-99.99,,,-99.99,,2013-01-21 15:43:00,
2013-01-21 06:53:00,28.0,-99.9,29.90,East,83,16.0,19.0,-999,-99.99,,,-99.99,,2013-01-21 15:53:00,
2013-01-21 07:04:00,-999.0,-99.9,29.90,East,85,16.0,19.0,-999,-99.99,,,-99.99,,2013-01-21 16:04:00,
2013-01-21 07:13:00,27.0,-99.9,29.90,East,90,14.0,18.0,-999,-99.99,,,-99.99,,2013-01-21 16:13:00,
2013-01-21 07:24:00,-999.0,-99.9,29.90,East,88,13.0,15.0,-999,-99.99,,,-99.99,,2013-01-21 16:24:00,
2013-01-21 07:33:00,-999.0,-99.9,29.90,East,88,13.0,16.0,-999,-99.99,,,-99.99,,2013-01-21 16:33:00,
2013-01-21 07:44:00,26.0,-99.9,29.90,East,85,12.0,16.0,-999,-99.99,,,-99.99,,2013-01-21 16:44:00,
2013-01-21 07:53:00,-999.0,-99.9,29.90,East,86,11.0,13.0,-999,-99.99,,,-99.99,,2013-01-21 16:53:00,
2013-01-21 08:03:00,-999.0,-99.9,29.89,East,83,13.0,15.0,-999,-99.99,,,-99.99,,2013-01-21 17:03:00,
2013-01-21 08:13:00,-999.0,-99.9,29.89,East,83,13.0,16.0,-999,-99.99,,,-99.99,,2013-01-21 17:13:00,
2013-01-21 08:23:00,-999.0,-99.9,29.89,East,81,14.0,16.0,-999,-99.99,,,-99.99,,2013-01-21 17:23:00,
2013-01-21 08:33:00,-999.0,-99.9,29.89,East,84,12.0,17.0,-999,-99.99,,,-99.99,,2013-01-21 17:33:00,
2013-01-21 08:43:00,26.0,-99.9,29.90,East,83,11.0,13.0,-999,-99.99,,,-99.99,,2013-01-21 17:43:00,
2013-01-21 08:53:00,-999.0,-99.9,29.90,East,88,12.0,15.0,-999,-99.99,,,-99.99,,2013-01-21 17:53:00,
2013-01-21 09:03:00,-999.0,-99.9,29.90,East,86,17.0,19.0,-999,-99.99,,,-99.99,,2013-01-21 18:03:00,
2013-01-21 09:12:00,26.0,-99.9,29.90,East,87,17.0,21.0,-999,-99.99,,,-99.99,,2013-01-21 18:12:00,
2013-01-21 09:23:00,-999.0,-99.9,29.91,East,86,15.0,18.0,-999,-99.99,,,-99.99,,2013-01-21 18:23:00,
2013-01-21 09:33:00,-999.0,-99.9,29.91,ENE,76,16.0,19.0,-999,-99.99,,,-99.99,,2013-01-21 18:33:00,
2013-01-21 09:43:00,-999.0,-99.9,29.91,ENE,77,16.0,18.0,-999,-99.99,,,-99.99,,2013-01-21 18:43:00,
2013-01-21 09:53:00,-999.0,-99.9,29.91,ENE,77,17.0,21.0,-999,-99.99,,,-99.99,,2013-01-21 18:53:00,
2013-01-21 10:03:00,-999.0,-99.9,29.91,East,80,14.0,18.0,-999,-99.99,,,-99.99,,2013-01-21 19:03:00,
2013-01-21 10:13:00,24.0,-99.9,29.91,East,80,15.0,19.0,-999,-99.99,,,-99.99,,2013-01-21 19:13:00,
2013-01-21 10:23:00,-999.0,-99.9,29.91,ENE,77,16.0,19.0,-999,-99.99,,,-99.99,,2013-01-21 19:23:00,
2013-01-21 10:33:00,-999.0,-99.9,29.91,ENE,77,15.0,17.0,-999,-99.99,,,-99.99,,2013-01-21 19:33:00,
2013-01-21 10:43:00,24.0,-99.9,29.91,East,84,15.0,19.0,-999,-99.99,,,-99.99,,2013-01-21 19:43:00,
2013-01-21 10:53:00,-999.0,-99.9,29.91,East,87,15.0,20.0,-999,-99.99,,,-99.99,,2013-01-21 19:53:00,
2013-01-21 11:04:00,-999.0,-99.9,29.91,East,88,14.0,18.0,-999,-99.99,,,-99.99,,2013-01-21 20:04:00,
2013-01-21 11:12:00,-999.0,-99.9,29.92,East,87,15.0,18.0,-999,-99.99,,,-99.99,,2013-01-21 20:12:00,
2013-01-21 11:23:00,-999.0,-99.9,29.91,East,88,15.0,17.0,-999,-99.99,,,-99.99,,2013-01-21 20:23:00,
2013-01-21 11:33:00,-999.0,-99.9,29.91,East,81,15.0,18.0,-999,-99.99,,,-99.99,,2013-01-21 20:33:00,
2013-01-21 11:43:00,24.0,-99.9,29.91,East,79,15.0,18.0,-999,-99.99,,,-99.99,,2013-01-21 20:43:00,
2013-01-21 11:53:00,-999.0,-99.9,29.91,East,80,16.0,19.0,-999,-99.99,,,-99.99,,2013-01-21 20:53:00,
2013-01-21 12:04:00,-999.0,-99.9,29.91,ENE,75,15.0,18.0,-999,-99.99,,,-99.99,,2013-01-21 21:04:00,
2013-01-21 12:12:00,25.0,-99.9,29.91,ENE,78,15.0,18.0,-999,-99.99,,,-99.99,,2013-01-21 21:12:00,
2013-01-21 12:23:00,-999.0,-99.9,29.91,East,87,13.0,19.0,-999,-99.99,,,-99.99,,2013-01-21 21:23:00,
2013-01-21 12:33:00,-999.0,-99.9,29.91,East,85,13.0,15.0,-999,-99.99,,,-99.99,,2013-01-21 21:33:00,
2013-01-21 12:43:00,-999.0,-99.9,29.91,ENE,74,11.0,14.0,-999,-99.99,,,-99.99,,2013-01-21 21:43:00,
2013-01-21 12:54:00,-999.0,-99.9,29.92,NE,52,10.0,16.0,-999,-99.99,,,-99.99,,2013-01-21 21:54:00,
2013-01-21 13:04:00,-999.0,-99.9,29.92,East,87,13.0,15.0,-999,-99.99,,,-99.99,,2013-01-21 22:04:00,
2013-01-21 13:13:00,24.0,-99.9,29.92,ESE,103,9.0,13.0,-999,-99.99,,,-99.99,,2013-01-21 22:13:00,
2013-01-21 13:24:00,-999.0,-99.9,29.93,ESE,111,7.0,8.0,-999,-99.99,,,-99.99,,2013-01-21 22:24:00,
2013-01-21 13:33:00,-999.0,-99.9,29.92,ESE,120,6.0,7.0,-999,-99.99,,,-99.99,,2013-01-21 22:33:00,
2013-01-21 13:43:00,22.0,-99.9,29.92,ENE,78,3.0,6.0,-999,-99.99,,,-99.99,,2013-01-21 22:43:00,
2013-01-21 13:53:00,-999.0,-99.9,29.92,ENE,73,2.0,4.0,-999,-99.99,,,-99.99,,2013-01-21 22:53:00,
2013-01-21 14:03:00,-999.0,-99.9,29.92,NE,51,6.0,9.0,-999,-99.99,,,-99.99,,2013-01-21 23:03:00,
2013-01-21 14:13:00,23.0,-99.9,29.92,ENE,69,5.0,6.0,-999,-99.99,,,-99.99,,2013-01-21 23:13:00,
2013-01-21 14:23:00,-999.0,-99.9,29.92,ESE,106,11.0,15.0,-999,-99.99,,,-99.99,,2013-01-21 23:23:00,
2013-01-21 14:33:00,-999.0,-99.9,29.92,East,99,12.0,15.0,-999,-99.99,,,-99.99,,2013-01-21 23:33:00,
2013-01-21 14:43:00,22.0,-99.9,29.93,East,96,12.0,14.0,-999,-99.99,,,-99.99,,2013-01-21 23:43:00,
2013-01-21 14:53:00,-999.0,-99.9,29.92,East,98,11.0,15.0,-999,-99.99,,,-99.99,,2013-01-21 23:53:00,
2013-01-21 15:03:00,-999.0,-99.9,29.92,East,95,9.0,12.0,-999,-99.99,,,-99.99,,2013-01-22 00:03:00,
2013-01-21 15:12:00,24.0,-99.9,29.92,East,84,8.0,10.0,-999,-99.99,,,-99.99,,2013-01-22 00:12:00,
2013-01-21 15:23:00,-999.0,-99.9,29.91,ENE,65,11.0,14.0,-999,-99.99,,,-99.99,,2013-01-22 00:23:00,
2013-01-21 15:33:00,-999.0,-99.9,29.91,ENE,71,10.0,13.0,-999,-99.99,,,-99.99,,2013-01-22 00:33:00,
2013-01-21 15:43:00,24.0,-99.9,29.91,East,80,10.0,13.0,-999,-99.99,,,-99.99,,2013-01-22 00:43:00,
2013-01-21 15:53:00,-999.0,-99.9,29.91,ENE,73,7.0,10.0,-999,-99.99,,,-99.99,,2013-01-22 00:53:00,
2013-01-21 16:02:00,-999.0,-99.9,29.91,East,88,7.0,9.0,-999,-99.99,,,-99.99,,2013-01-22 01:02:00,
2013-01-21 16:12:00,24.0,-99.9,29.90,East,96,7.0,9.0,-999,-99.99,,,-99.99,,2013-01-22 01:12:00,
2013-01-21 16:23:00,-999.0,-99.9,29.89,NE,43,5.0,7.0,-999,-99.99,,,-99.99,,2013-01-22 01:23:00,
2013-01-21 16:33:00,-999.0,-99.9,29.89,ESE,116,2.0,4.0,-999,-99.99,,,-99.99,,2013-01-22 01:33:00,
2013-01-21 16:43:00,24.0,-99.9,29.88,NW,318,1.0,1.0,-999,-99.99,,,-99.99,,2013-01-22 01:43:00,
2013-01-21 16:53:00,-999.0,-99.9,29.88,NE,41,5.0,6.0,-999,-99.99,,,-99.99,,2013-01-22 01:53:00,
2013-01-21 17:03:00,-999.0,-99.9,29.88,NE,34,5.0,6.0,-999,-99.99,,,-99.99,,2013-01-22 02:03:00,
2013-01-21 17:12:00,27.0,-99.9,29.88,NE,44,3.0,6.0,-999,-99.99,,,-99.99,,2013-01-22 02:12:00,
2013-01-21 17:23:00,-999.0,-99.9,29.88,SSE,164,2.0,3.0,-999,-99.99,,,-99.99,,2013-01-22 02:23:00,
2013-01-21 17:33:00,-999.0,-99.9,29.88,ESE,120,6.0,7.0,-999,-99.99,,,-99.99,,2013-01-22 02:33:00,
2013-01-21 17:43:00,-999.0,-99.9,29.88,ESE,106,9.0,11.0,-999,-99.99,,,-99.99,,2013-01-22 02:43:00,
2013-01-21 17:53:00,26.0,-99.9,29.88,East,96,8.0,11.0,-999,-99.99,,,-99.99,,2013-01-22 02:53:00,
2013-01-21 18:03:00,-999.0,-99.9,29.87,ESE,109,9.0,12.0,-999,-99.99,,,-99.99,,2013-01-22 03:03:00,
2013-01-21 18:12:00,26.0,-99.9,29.87,ESE,103,10.0,13.0,-999,-99.99,,,-99.99,,2013-01-22 03:12:00,
2013-01-21 18:22:00,-999.0,-99.9,29.87,ESE,102,8.0,11.0,-999,-99.99,,,-99.99,,2013-01-22 03:22:00,
2013-01-21 18:33:00,-999.0,-99.9,29.88,East,91,5.0,9.0,-999,-99.99,,,-99.99,,2013-01-22 03:33:00,
2013-01-21 18:43:00,24.0,-99.9,29.88,East,93,5.0,6.0,-999,-99.99,,,-99.99,,2013-01-22 03:43:00,
2013-01-21 18:53:00,-999.0,-99.9,29.87,East,101,4.0,6.0,-999,-99.99,,,-99.99,,2013-01-22 03:53:00,
2013-01-21 19:03:00,-999.0,-99.9,29.87,ESE,115,5.0,7.0,-999,-99.99,,,-99.99,,2013-01-22 04:03:00,
2013-01-21 19:12:00,24.0,-99.9,29.87,ESE,108,5.0,7.0,-999,-99.99,,,-99.99,,2013-01-22 04:12:00,
2013-01-21 19:22:00,-999.0,-99.9,29.87,ESE,105,3.0,4.0,-999,-99.99,,,-99.99,,2013-01-22 04:22:00,
2013-01-21 19:33:00,-999.0,-99.9,29.86,SE,146,5.0,6.0,-999,-99.99,,,-99.99,,2013-01-22 04:33:00,
2013-01-21 19:43:00,22.0,-99.9,29.86,SE,141,6.0,6.0,-999,-99.99,,,-99.99,,2013-01-22 04:43:00,
2013-01-21 19:53:00,-999.0,-99.9,29.86,SE,124,6.0,7.0,-999,-99.99,,,-99.99,,2013-01-22 04:53:00,
2013-01-21 20:05:00,-999.0,-99.9,29.86,SE,125,9.0,12.0,-999,-99.99,,,-99.99,,2013-01-22 05:05:00,
2013-01-21 20:12:00,22.0,-99.9,29.86,ESE,123,9.0,11.0,-999,-99.99,,,-99.99,,2013-01-22 05:12:00,
2013-01-21 20:23:00,-999.0,-99.9,29.85,SE,134,9.0,11.0,-999,-99.99,,,-99.99,,2013-01-22 05:23:00,
2013-01-21 20:33:00,-999.0,-99.9,29.85,SE,134,9.0,11.0,-999,-99.99,,,-99.99,,2013-01-22 05:33:00,
2013-01-21 20:43:00,-999.0,-99.9,29.85,SE,125,8.0,9.0,-999,-99.99,,,-99.99,,2013-01-22 05:43:00,
2013-01-21 20:53:00,24.0,-99.9,29.85,ESE,121,7.0,9.0,-999,-99.99,,,-99.99,,2013-01-22 05:53:00,
2013-01-21 21:02:00,-999.0,-99.9,29.85,SE,125,6.0,7.0,-999,-99.99,,,-99.99,,2013-01-22 06:02:00,
2013-01-21 21:12:00,23.0,-99.9,29.85,East,84,7.0,9.0,-999,-99.99,,,-99.99,,2013-01-22 06:12:00,
2013-01-21 21:22:00,-999.0,-99.9,29.85,ENE,69,9.0,12.0,-999,-99.99,,,-99.99,,2013-01-22 06:22:00,
2013-01-21 21:33:00,-999.0,-99.9,29.85,NE,43,5.0,7.0,-999,-99.99,,,-99.99,,2013-01-22 06:33:00,
2013-01-21 21:43:00,24.0,-99.9,29.85,ENE,57,4.0,5.0,-999,-99.99,,,-99.99,,2013-01-22 06:43:00,
2013-01-21 21:53:00,-999.0,-99.9,29.85,NNE,12,6.0,10.0,-999,-99.99,,,-99.99,,2013-01-22 06:53:00,
2013-01-21 22:03:00,-999.0,-99.9,29.85,ENE,58,6.0,9.0,-999,-99.99,,,-99.99,,2013-01-22 07:03:00,
2013-01-21 22:12:00,-999.0,-99.9,29.85,ENE,78,6.0,9.0,-999,-99.99,,,-99.99,,2013-01-22 07:12:00,
2013-01-21 22:22:00,-999.0,-99.9,29.85,East,81,8.0,9.0,-999,-99.99,,,-99.99,,2013-01-22 07:22:00,
2013-01-21 22:33:00,-999.0,-99.9,29.85,East,92,8.0,9.0,-999,-99.99,,,-99.99,,2013-01-22 07:33:00,
2013-01-21 22:43:00,21.0,-99.9,29.85,East,85,8.0,9.0,-999,-99.99,,,-99.99,,2013-01-22 07:43:00,
2013-01-21 22:53:00,-999.0,-99.9,29.85,ESE,113,9.0,10.0,-999,-99.99,,,-99.99,,2013-01-22 07:53:00,
2013-01-21 23:02:00,-999.0,-99.9,29.85,East,80,11.0,13.0,-999,-99.99,,,-99.99,,2013-01-22 08:02:00,
2013-01-21 23:12:00,21.0,-99.9,29.85,ENE,60,11.0,14.0,-999,-99.99,,,-99.99,,2013-01-22 08:12:00,
2013-01-21 23:23:00,-999.0,-99.9,29.84,NE,54,14.0,16.0,-999,-99.99,,,-99.99,,2013-01-22 08:23:00,
2013-01-21 23:33:00,-999.0,-99.9,29.84,NE,51,12.0,14.0,-999,-99.99,,,-99.99,,2013-01-22 08:33:00,
2013-01-21 23:43:00,-999.0,-99.9,29.83,NE,55,13.0,15.0,-999,-99.99,,,-99.99,,2013-01-22 08:43:00,
2013-01-21 23:53:00,-999.0,-99.9,29.83,ENE,68,14.0,15.0,-999,-99.99,,,-99.99,,2013-01-22 08:53:00,